createdAt,value
2023-09-09T00:01:52.380Z,9.30
2023-09-09T00:04:19.015Z,8.40
2023-09-09T00:06:45.647Z,8.27
2023-09-09T00:09:12.220Z,9.35
2023-09-09T00:11:38.720Z,9.45
2023-09-09T00:14:05.471Z,8.40
2023-09-09T00:16:35.062Z,7.88
2023-09-09T00:19:02.127Z,8.52
2023-09-09T00:21:28.645Z,8.70
2023-09-09T00:23:55.300Z,7.93
2023-09-09T00:26:21.864Z,8.45
2023-09-09T00:28:48.509Z,8.40
2023-09-09T00:31:15.024Z,8.65
2023-09-09T00:33:42.201Z,8.20
2023-09-09T00:36:08.726Z,9.13
2023-09-09T00:38:35.413Z,8.32
2023-09-09T00:41:22.020Z,7.97
2023-09-09T00:43:50.368Z,9.95
2023-09-09T00:46:18.045Z,9.10
2023-09-09T00:48:45.294Z,9.85
2023-09-09T00:51:13.037Z,8.75
2023-09-09T00:53:41.032Z,8.77
2023-09-09T00:56:07.763Z,9.07
2023-09-09T00:58:34.571Z,8.35
2023-09-09T01:01:01.974Z,9.15
2023-09-09T01:03:28.705Z,8.95
2023-09-09T01:05:55.564Z,9.10
2023-09-09T01:08:26.367Z,8.77
2023-09-09T01:10:53.642Z,8.43
2023-09-09T01:13:20.487Z,9.23
2023-09-09T01:15:47.851Z,8.73
2023-09-09T01:18:14.656Z,9.07
2023-09-09T01:20:46.049Z,9.55
2023-09-09T01:23:12.624Z,9.20
2023-09-09T01:25:39.221Z,9.38
2023-09-09T01:28:06.364Z,8.82
2023-09-09T01:30:32.916Z,9.18
2023-09-09T01:32:59.501Z,9.15
2023-09-09T01:35:26.281Z,9.13
2023-09-09T01:37:52.854Z,9.35
2023-09-09T01:40:19.478Z,10.30
2023-09-09T01:42:46.112Z,9.15
2023-09-09T01:45:12.679Z,9.82
2023-09-09T01:47:39.564Z,9.30
2023-09-09T01:50:06.744Z,8.90
2023-09-09T01:52:33.305Z,9.20
2023-09-09T01:54:59.796Z,9.32
2023-09-09T01:57:26.345Z,9.82
2023-09-09T01:59:52.905Z,9.52
2023-09-09T02:02:19.491Z,9.45
2023-09-09T02:04:46.088Z,9.35
2023-09-09T02:07:12.707Z,8.90
2023-09-09T02:09:39.337Z,8.95
2023-09-09T02:12:06.444Z,10.57
2023-09-09T02:14:34.557Z,9.70
2023-09-09T02:17:01.165Z,9.85
2023-09-09T02:19:27.668Z,9.25
2023-09-09T02:21:54.262Z,9.73
2023-09-09T02:24:20.820Z,10.23
2023-09-09T02:26:47.391Z,10.82
2023-09-09T02:29:13.918Z,10.15
2023-09-09T02:31:40.538Z,10.23
2023-09-09T02:34:07.195Z,10.40
2023-09-09T02:36:33.800Z,9.57
2023-09-09T02:39:00.375Z,10.35
2023-09-09T02:41:27.082Z,10.02
2023-09-09T02:43:53.585Z,9.75
2023-09-09T02:46:21.846Z,9.48
2023-09-09T02:48:49.437Z,10.50
2023-09-09T02:51:15.972Z,10.02
2023-09-09T02:53:42.505Z,10.68
2023-09-09T02:56:09.033Z,11.82
2023-09-09T02:58:35.590Z,10.27
2023-09-09T03:01:06.288Z,10.98
2023-09-09T03:03:35.199Z,10.52
2023-09-09T03:06:02.001Z,11.38
2023-09-09T03:08:29.095Z,11.45
2023-09-09T03:10:55.630Z,10.00
2023-09-09T03:13:22.237Z,9.00
2023-09-09T03:15:48.745Z,9.70
2023-09-09T03:18:15.516Z,10.27
2023-09-09T03:20:42.157Z,9.80
2023-09-09T03:23:08.974Z,9.40
2023-09-09T03:25:35.519Z,9.50
2023-09-09T03:28:02.152Z,9.93
2023-09-09T03:30:28.917Z,10.15
2023-09-09T03:32:55.592Z,10.15
2023-09-09T03:35:22.117Z,9.65
2023-09-09T03:37:48.714Z,10.05
2023-09-09T03:40:15.534Z,10.27
2023-09-09T03:42:42.287Z,10.23
2023-09-09T03:45:09.202Z,9.50
2023-09-09T03:47:35.805Z,9.98
2023-09-09T03:50:02.349Z,10.52
2023-09-09T03:52:29.450Z,10.25
2023-09-09T03:54:56.015Z,10.57
2023-09-09T03:57:22.676Z,9.43
2023-09-09T03:59:49.688Z,10.10
2023-09-09T04:02:36.316Z,10.90
2023-09-09T04:05:04.067Z,9.63
2023-09-09T04:07:30.779Z,10.02
2023-09-09T04:09:57.485Z,9.98
2023-09-09T04:12:24.119Z,9.65
2023-09-09T04:14:50.712Z,10.27
2023-09-09T04:17:17.240Z,10.98
2023-09-09T04:19:43.878Z,10.23
2023-09-09T04:22:10.445Z,11.60
2023-09-09T04:24:37.080Z,11.77
2023-09-09T04:27:03.879Z,11.95
2023-09-09T04:29:30.681Z,11.70
2023-09-09T04:31:57.346Z,12.15
2023-09-09T04:34:23.934Z,12.13
2023-09-09T04:36:50.506Z,11.27
2023-09-09T04:39:18.181Z,11.75
2023-09-09T04:41:46.432Z,10.70
2023-09-09T04:44:14.579Z,10.95
2023-09-09T04:46:41.169Z,11.82
2023-09-09T04:49:07.801Z,11.40
2023-09-09T04:51:35.261Z,11.48
2023-09-09T04:54:02.648Z,11.82
2023-09-09T04:56:29.225Z,11.88
2023-09-09T04:58:55.814Z,13.40
2023-09-09T05:01:22.709Z,12.18
2023-09-09T05:03:49.339Z,12.50
2023-09-09T05:06:15.893Z,13.52
2023-09-09T05:08:42.492Z,12.88
2023-09-09T05:11:09.078Z,13.27
2023-09-09T05:13:35.921Z,14.00
2023-09-09T05:16:04.279Z,13.82
2023-09-09T05:18:31.272Z,12.90
2023-09-09T05:20:57.773Z,12.88
2023-09-09T05:23:24.378Z,15.50
2023-09-09T05:25:51.437Z,14.50
2023-09-09T05:28:18.008Z,14.05
2023-09-09T05:30:44.735Z,14.48
2023-09-09T05:33:11.994Z,14.45
2023-09-09T05:35:38.647Z,16.08
2023-09-09T05:38:05.243Z,15.20
2023-09-09T05:40:31.805Z,14.32
2023-09-09T05:42:58.492Z,14.60
2023-09-09T05:45:25.033Z,13.90
2023-09-09T05:47:51.844Z,14.70
2023-09-09T05:50:18.350Z,14.82
2023-09-09T05:52:45.262Z,14.73
2023-09-09T05:55:12.567Z,14.95
2023-09-09T05:57:39.080Z,14.35
2023-09-09T06:00:06.637Z,13.82
2023-09-09T06:02:46.362Z,14.15
2023-09-09T06:05:12.971Z,13.65
2023-09-09T06:07:42.051Z,13.60
2023-09-09T06:10:09.751Z,13.50
2023-09-09T06:12:36.696Z,12.38
2023-09-09T06:15:03.562Z,12.85
2023-09-09T06:17:30.219Z,12.93
2023-09-09T06:19:56.810Z,13.40
2023-09-09T06:22:23.385Z,13.35
2023-09-09T06:24:50.029Z,13.65
2023-09-09T06:27:16.676Z,15.23
2023-09-09T06:29:43.356Z,14.75
2023-09-09T06:32:10.127Z,15.02
2023-09-09T06:34:37.183Z,14.60
2023-09-09T06:37:03.866Z,14.30
2023-09-09T06:39:30.433Z,14.73
2023-09-09T06:41:58.238Z,14.00
2023-09-09T06:44:30.405Z,13.73
2023-09-09T06:46:56.904Z,10.52
2023-09-09T06:49:23.436Z,14.40
2023-09-09T06:51:50.176Z,14.25
2023-09-09T06:54:16.716Z,13.73
2023-09-09T06:56:43.239Z,13.75
2023-09-09T06:59:09.734Z,13.45
2023-09-09T07:01:36.335Z,13.00
2023-09-09T07:04:02.986Z,13.60
2023-09-09T07:06:29.741Z,12.82
2023-09-09T07:08:56.226Z,12.48
2023-09-09T07:11:41.684Z,12.68
2023-09-09T07:14:08.203Z,12.70
2023-09-09T07:16:34.736Z,12.40
2023-09-09T07:19:01.469Z,11.63
2023-09-09T07:21:27.935Z,10.82
2023-09-09T07:23:54.418Z,11.68
2023-09-09T07:26:20.977Z,10.60
2023-09-09T07:28:47.487Z,11.60
2023-09-09T07:31:14.084Z,10.32
2023-09-09T07:33:40.943Z,10.55
2023-09-09T07:36:07.470Z,9.50
2023-09-09T07:38:33.980Z,10.00
2023-09-09T07:41:00.560Z,9.48
2023-09-09T07:43:27.135Z,9.18
2023-09-09T07:45:53.713Z,8.93
2023-09-09T07:48:20.277Z,9.48
2023-09-09T07:50:54.666Z,10.93
2023-09-09T07:53:22.072Z,11.10
2023-09-09T07:55:49.295Z,8.93
2023-09-09T07:58:16.735Z,9.90
2023-09-09T08:00:44.909Z,9.13
2023-09-09T08:03:12.420Z,9.38
2023-09-09T08:05:39.561Z,8.38
2023-09-09T08:08:09.150Z,9.35
2023-09-09T08:10:35.655Z,9.20
2023-09-09T08:13:02.576Z,9.15
2023-09-09T08:15:41.689Z,8.50
2023-09-09T08:18:08.647Z,9.18
2023-09-09T08:20:35.210Z,9.20
2023-09-09T08:23:01.742Z,8.65
2023-09-09T08:25:28.237Z,8.15
2023-09-09T08:27:54.962Z,8.73
2023-09-09T08:30:21.478Z,8.50
2023-09-09T08:32:48.026Z,8.25
2023-09-09T08:35:14.644Z,9.07
2023-09-09T08:37:41.208Z,7.78
2023-09-09T08:40:08.446Z,7.88
2023-09-09T08:42:49.123Z,8.15
2023-09-09T08:45:18.437Z,8.35
2023-09-09T08:47:46.332Z,8.25
2023-09-09T08:50:16.847Z,7.68
2023-09-09T08:52:44.842Z,8.27
2023-09-09T08:55:11.813Z,8.00
2023-09-09T08:57:38.650Z,6.78
2023-09-09T09:00:06.469Z,7.63
2023-09-09T09:02:35.004Z,6.88
2023-09-09T09:05:04.459Z,6.82
2023-09-09T09:07:32.318Z,7.25
2023-09-09T09:09:58.871Z,7.43
2023-09-09T09:12:28.827Z,6.90
2023-09-09T09:14:55.370Z,6.25
2023-09-09T09:17:22.984Z,6.85
2023-09-09T09:19:49.608Z,8.20
2023-09-09T09:22:17.546Z,6.07
2023-09-09T09:24:45.867Z,6.00
2023-09-09T09:27:16.458Z,5.93
2023-09-09T09:29:45.677Z,6.15
2023-09-09T09:32:12.757Z,5.82
2023-09-09T09:34:40.050Z,5.95
2023-09-09T09:37:14.301Z,5.13
2023-09-09T09:39:41.147Z,5.10
2023-09-09T09:42:11.499Z,4.65
2023-09-09T09:47:09.287Z,5.50
2023-09-09T09:49:43.429Z,4.70
2023-09-09T09:52:10.195Z,5.20
2023-09-09T09:54:37.885Z,4.88
2023-09-09T09:57:06.207Z,4.75
2023-09-09T09:59:34.770Z,4.68
2023-09-09T10:02:01.787Z,5.15
2023-09-09T10:04:28.994Z,4.47
2023-09-09T10:06:57.080Z,5.65
2023-09-09T10:09:31.559Z,5.57
2023-09-09T10:12:06.422Z,5.65
2023-09-09T10:14:36.138Z,4.85
2023-09-09T10:17:06.341Z,4.22
2023-09-09T10:19:35.199Z,4.80
2023-09-09T10:22:02.313Z,4.38
2023-09-09T10:24:30.219Z,5.18
2023-09-09T10:26:57.890Z,3.95
2023-09-09T10:29:25.334Z,4.53
2023-09-09T10:31:53.541Z,4.45
2023-09-09T10:34:21.714Z,4.35
2023-09-09T10:39:26.574Z,4.10
2023-09-09T10:41:55.265Z,3.50
2023-09-09T10:44:21.942Z,3.75
2023-09-09T10:46:54.411Z,3.80
2023-09-09T10:49:25.331Z,4.75
2023-09-09T10:51:52.516Z,4.30
2023-09-09T10:54:20.569Z,4.38
2023-09-09T10:56:48.836Z,5.50
2023-09-09T10:59:24.287Z,4.15
2023-09-09T11:02:11.801Z,4.20
2023-09-09T11:04:40.738Z,3.45
2023-09-09T11:07:12.317Z,4.28
2023-09-09T11:09:39.035Z,4.32
2023-09-09T11:12:13.176Z,4.40
2023-09-09T11:14:44.342Z,5.93
2023-09-09T11:17:11.608Z,6.72
2023-09-09T11:19:39.272Z,4.70
2023-09-09T11:22:07.754Z,10.45
2023-09-09T11:24:37.323Z,8.35
2023-09-09T11:27:06.968Z,7.15
2023-09-09T11:29:37.598Z,6.70
2023-09-09T11:32:09.341Z,12.88
2023-09-09T11:34:36.001Z,4.13
2023-09-09T11:37:04.068Z,11.73
2023-09-09T11:39:39.047Z,10.00
2023-09-09T11:42:05.666Z,15.45
2023-09-09T11:44:40.855Z,8.73
2023-09-09T11:47:08.378Z,20.60
2023-09-09T11:49:36.066Z,9.68
2023-09-09T11:52:02.764Z,12.85
2023-09-09T11:54:30.859Z,8.20
2023-09-09T11:57:05.804Z,8.57
2023-09-09T11:59:32.415Z,7.20
2023-09-09T12:02:00.891Z,10.35
2023-09-09T12:04:27.633Z,6.45
2023-09-09T12:06:55.521Z,6.10
2023-09-09T12:09:22.748Z,5.95
2023-09-09T12:11:49.969Z,4.60
2023-09-09T12:14:17.191Z,5.32
2023-09-09T12:16:44.924Z,4.80
2023-09-09T12:19:14.899Z,4.80
2023-09-09T12:21:48.135Z,4.43
2023-09-09T12:24:14.800Z,4.18
2023-09-09T12:26:54.274Z,4.28
2023-09-09T12:29:21.418Z,4.03
2023-09-09T12:31:53.759Z,4.25
2023-09-09T12:34:21.344Z,3.83
2023-09-09T12:36:49.215Z,3.90
2023-09-09T12:39:36.043Z,3.95
2023-09-09T12:42:06.665Z,3.97
2023-09-09T12:47:05.010Z,5.13
2023-09-09T12:49:32.965Z,4.50
2023-09-09T12:51:59.486Z,4.97
2023-09-09T12:54:26.083Z,4.20
2023-09-09T12:56:52.659Z,5.43
2023-09-09T12:59:19.216Z,4.25
2023-09-09T13:01:45.779Z,4.43
2023-09-09T13:04:12.478Z,4.25
2023-09-09T13:06:38.996Z,4.28
2023-09-09T13:09:05.572Z,4.38
2023-09-09T13:11:32.240Z,4.50
2023-09-09T13:14:07.419Z,4.68
2023-09-09T13:16:45.548Z,4.03
2023-09-09T13:19:12.137Z,4.50
2023-09-09T13:21:38.718Z,4.75
2023-09-09T13:24:05.711Z,4.60
2023-09-09T13:26:32.269Z,4.20
2023-09-09T13:28:58.772Z,4.38
2023-09-09T13:31:25.307Z,5.43
2023-09-09T13:33:51.856Z,5.72
2023-09-09T13:36:18.387Z,4.30
2023-09-09T13:38:44.989Z,4.00
2023-09-09T13:41:11.550Z,3.97
2023-09-09T13:43:38.355Z,3.58
2023-09-09T13:46:05.125Z,4.10
2023-09-09T13:48:31.634Z,3.75
2023-09-09T13:50:58.155Z,3.50
2023-09-09T13:53:24.776Z,4.18
2023-09-09T13:55:51.312Z,3.83
2023-09-09T13:58:17.785Z,3.72
2023-09-09T14:00:44.417Z,4.13
2023-09-09T14:03:11.137Z,4.15
2023-09-09T14:05:37.823Z,3.78
2023-09-09T14:08:04.650Z,4.00
2023-09-09T14:10:34.458Z,3.78
2023-09-09T14:13:01.122Z,3.80
2023-09-09T14:15:27.707Z,3.45
2023-09-09T14:17:54.350Z,3.35
2023-09-09T14:20:21.013Z,3.65
2023-09-09T14:22:47.541Z,4.35
2023-09-09T14:25:14.135Z,4.43
2023-09-09T14:27:41.468Z,3.50
2023-09-09T14:30:08.598Z,7.35
2023-09-09T14:32:35.160Z,7.53
2023-09-09T14:35:01.706Z,7.15
2023-09-09T14:37:28.247Z,4.15
2023-09-09T14:39:54.737Z,4.35
2023-09-09T14:42:21.302Z,3.83
2023-09-09T14:44:48.798Z,4.07
2023-09-09T14:47:15.603Z,3.75
2023-09-09T14:49:42.498Z,3.35
2023-09-09T14:52:09.354Z,3.75
2023-09-09T14:54:36.376Z,3.15
2023-09-09T14:57:03.229Z,3.08
2023-09-09T14:59:30.963Z,3.75
2023-09-09T15:01:57.546Z,3.55
2023-09-09T15:04:24.172Z,3.42
2023-09-09T15:06:50.831Z,3.95
2023-09-09T15:09:17.331Z,3.75
2023-09-09T15:11:43.997Z,3.40
2023-09-09T15:14:13.697Z,3.50
2023-09-09T15:19:14.038Z,3.17
2023-09-09T15:21:40.819Z,3.95
2023-09-09T15:24:07.740Z,3.67
2023-09-09T15:26:34.363Z,4.07
2023-09-09T15:29:01.191Z,3.28
2023-09-09T15:31:27.782Z,3.17
2023-09-09T15:33:54.431Z,4.13
2023-09-09T15:36:21.192Z,5.97
2023-09-09T15:38:47.882Z,5.47
2023-09-09T15:41:14.378Z,3.53
2023-09-09T15:43:45.885Z,2.95
2023-09-09T15:46:12.580Z,3.90
2023-09-09T15:48:39.335Z,3.20
2023-09-09T15:51:06.787Z,3.20
2023-09-09T15:53:33.852Z,4.35
2023-09-09T15:56:00.404Z,3.90
2023-09-09T15:58:26.946Z,3.90
2023-09-09T16:00:53.576Z,3.53
2023-09-09T16:03:20.123Z,3.80
2023-09-09T16:05:46.731Z,4.07
2023-09-09T16:08:13.270Z,3.88
2023-09-09T16:10:39.849Z,4.40
2023-09-09T16:13:06.492Z,4.45
2023-09-09T16:15:33.291Z,4.35
2023-09-09T16:17:59.876Z,3.72
2023-09-09T16:20:26.584Z,4.20
2023-09-09T16:22:53.594Z,4.20
2023-09-09T16:25:20.294Z,3.17
2023-09-09T16:27:46.825Z,4.80
2023-09-09T16:30:13.519Z,3.38
2023-09-09T16:32:40.131Z,4.10
2023-09-09T16:35:07.572Z,3.97
2023-09-09T16:37:34.456Z,4.40
2023-09-09T16:40:01.075Z,3.72
2023-09-09T16:42:27.633Z,3.92
2023-09-09T16:44:54.177Z,2.92
2023-09-09T16:47:20.668Z,3.85
2023-09-09T16:49:47.314Z,3.60
2023-09-09T16:52:13.862Z,3.15
2023-09-09T16:54:40.483Z,3.72
2023-09-09T16:57:07.042Z,3.75
2023-09-09T16:59:40.770Z,3.63
2023-09-09T17:02:10.092Z,3.65
2023-09-09T17:04:36.840Z,3.67
2023-09-09T17:07:03.842Z,3.70
2023-09-09T17:09:33.331Z,3.92
2023-09-09T17:11:59.911Z,3.67
2023-09-09T17:14:26.473Z,3.95
2023-09-09T17:16:52.987Z,4.72
2023-09-09T17:19:19.590Z,4.30
2023-09-09T17:21:46.181Z,4.35
2023-09-09T17:24:12.700Z,3.83
2023-09-09T17:26:39.268Z,3.70
2023-09-09T17:29:05.799Z,4.72
2023-09-09T17:31:32.547Z,4.70
2023-09-09T17:33:59.118Z,15.50
2023-09-09T17:36:25.906Z,8.52
2023-09-09T17:39:07.119Z,12.80
2023-09-09T17:41:33.857Z,17.13
2023-09-09T17:44:01.009Z,15.63
2023-09-09T17:46:27.636Z,8.55
2023-09-09T17:48:55.917Z,9.95
2023-09-09T17:51:22.873Z,8.75
2023-09-09T17:53:49.387Z,62.85
2023-09-09T17:56:15.946Z,13.60
2023-09-09T17:58:42.559Z,5.85
2023-09-09T18:01:09.144Z,4.95
2023-09-09T18:03:35.808Z,27.40
2023-09-09T18:06:03.995Z,6.78
2023-09-09T18:08:30.651Z,5.20
2023-09-09T18:10:57.274Z,6.20
2023-09-09T18:13:23.909Z,12.77
2023-09-09T18:15:51.212Z,10.10
2023-09-09T18:18:17.772Z,6.10
2023-09-09T18:20:44.454Z,5.18
2023-09-09T18:23:10.972Z,8.60
2023-09-09T18:25:37.759Z,10.05
2023-09-09T18:28:04.730Z,8.68
2023-09-09T18:30:31.288Z,6.05
2023-09-09T18:32:57.835Z,6.28
2023-09-09T18:35:24.488Z,4.22
2023-09-09T18:37:51.056Z,13.27
2023-09-09T18:40:17.846Z,5.85
2023-09-09T18:42:44.419Z,4.93
2023-09-09T18:45:10.976Z,4.28
2023-09-09T18:47:37.567Z,4.50
2023-09-09T18:50:04.364Z,5.35
2023-09-09T18:52:30.893Z,4.35
2023-09-09T18:54:57.438Z,3.38
2023-09-09T18:57:23.975Z,3.63
2023-09-09T18:59:50.538Z,3.60
2023-09-09T19:02:17.125Z,4.40
2023-09-09T19:04:43.994Z,4.00
2023-09-09T19:07:11.221Z,3.85
2023-09-09T19:09:44.596Z,4.13
2023-09-09T19:12:11.147Z,3.92
2023-09-09T19:14:37.667Z,3.75
2023-09-09T19:17:04.391Z,3.28
2023-09-09T19:19:30.903Z,3.97
2023-09-09T19:21:57.426Z,3.70
2023-09-09T19:24:23.929Z,3.40
2023-09-09T19:26:50.456Z,3.53
2023-09-09T19:29:16.953Z,3.50
2023-09-09T19:31:43.507Z,3.60
2023-09-09T19:34:10.041Z,3.53
2023-09-09T19:36:36.585Z,3.95
2023-09-09T19:39:03.580Z,4.45
2023-09-09T19:41:30.212Z,5.32
2023-09-09T19:43:57.034Z,4.10
2023-09-09T19:46:23.764Z,3.70
2023-09-09T19:48:50.409Z,3.78
2023-09-09T19:51:16.901Z,3.55
2023-09-09T19:53:43.442Z,3.85
2023-09-09T19:56:09.950Z,3.58
2023-09-09T19:58:36.784Z,3.60
2023-09-09T20:01:04.440Z,3.42
2023-09-09T20:03:31.024Z,3.53
2023-09-09T20:05:57.695Z,3.30
2023-09-09T20:08:24.222Z,3.78
2023-09-09T20:10:50.758Z,4.18
2023-09-09T20:13:17.288Z,3.83
2023-09-09T20:15:43.843Z,3.75
2023-09-09T20:18:10.440Z,3.83
2023-09-09T20:20:39.769Z,4.05
2023-09-09T20:23:06.411Z,3.80
2023-09-09T20:25:33.010Z,4.18
2023-09-09T20:27:59.562Z,3.83
2023-09-09T20:30:26.088Z,3.75
2023-09-09T20:32:52.705Z,4.65
2023-09-09T20:35:33.604Z,4.57
2023-09-09T20:38:02.193Z,4.05
2023-09-09T20:40:28.778Z,4.20
2023-09-09T20:42:58.390Z,4.28
2023-09-09T20:45:26.575Z,4.25
2023-09-09T20:47:54.528Z,4.53
2023-09-09T20:50:23.839Z,3.67
2023-09-09T20:52:51.837Z,4.82
2023-09-09T20:55:19.518Z,4.13
2023-09-09T20:57:46.043Z,4.20
2023-09-09T21:00:13.228Z,5.03
2023-09-09T21:02:45.127Z,6.07
2023-09-09T21:05:11.842Z,10.98
2023-09-09T21:07:38.670Z,14.98
2023-09-09T21:10:06.070Z,16.38
2023-09-09T21:12:32.592Z,20.33
2023-09-09T21:14:59.151Z,18.13
2023-09-09T21:17:25.787Z,15.00
2023-09-09T21:19:52.546Z,13.15
2023-09-09T21:22:19.249Z,13.00
2023-09-09T21:24:45.742Z,13.02
2023-09-09T21:27:12.233Z,19.90
2023-09-09T21:29:38.904Z,20.58
2023-09-09T21:32:06.051Z,16.20
2023-09-09T21:34:32.663Z,7.75
2023-09-09T21:36:59.157Z,6.50
2023-09-09T21:39:27.278Z,6.20
2023-09-09T21:41:53.777Z,5.50
2023-09-09T21:44:20.283Z,5.35
2023-09-09T21:46:46.909Z,5.28
2023-09-09T21:49:13.480Z,5.45
2023-09-09T21:51:40.103Z,6.32
2023-09-09T21:54:06.840Z,5.47
2023-09-09T21:56:33.379Z,5.50
2023-09-09T21:58:59.924Z,5.45
2023-09-09T22:01:26.433Z,5.80
2023-09-09T22:03:53.306Z,5.93
2023-09-09T22:06:19.907Z,5.10
2023-09-09T22:08:46.517Z,5.28
2023-09-09T22:11:12.999Z,5.10
2023-09-09T22:13:39.780Z,5.25
2023-09-09T22:16:07.629Z,5.25
2023-09-09T22:18:34.675Z,5.22
2023-09-09T22:21:05.073Z,6.22
2023-09-09T22:23:31.689Z,5.10
2023-09-09T22:25:58.304Z,5.43
2023-09-09T22:28:24.864Z,4.85
2023-09-09T22:30:51.425Z,5.38
2023-09-09T22:33:18.032Z,5.25
2023-09-09T22:35:44.570Z,5.78
2023-09-09T22:38:12.969Z,6.07
2023-09-09T22:40:39.481Z,5.55
2023-09-09T22:43:06.007Z,6.10
2023-09-09T22:45:32.501Z,5.88
2023-09-09T22:47:59.086Z,6.07
2023-09-09T22:50:25.594Z,6.15
2023-09-09T22:52:52.141Z,5.93
2023-09-09T22:55:18.673Z,6.28
2023-09-09T22:57:45.779Z,5.72
2023-09-09T23:00:12.826Z,5.57
2023-09-09T23:02:39.446Z,5.82
2023-09-09T23:05:06.242Z,6.00
2023-09-09T23:07:45.957Z,5.65
2023-09-09T23:10:18.513Z,6.10
2023-09-09T23:12:45.045Z,5.97
2023-09-09T23:15:11.637Z,7.25
2023-09-09T23:17:38.191Z,6.20
2023-09-09T23:20:05.371Z,6.45
2023-09-09T23:22:31.979Z,7.00
2023-09-09T23:24:58.672Z,6.50
2023-09-09T23:27:25.193Z,6.53
2023-09-09T23:29:51.729Z,7.72
2023-09-09T23:32:18.369Z,6.80
2023-09-09T23:34:45.041Z,7.35
2023-09-09T23:37:11.522Z,7.80
2023-09-09T23:39:38.024Z,7.07
2023-09-09T23:42:04.691Z,8.05
2023-09-09T23:44:31.184Z,7.90
2023-09-09T23:46:57.704Z,8.23
2023-09-09T23:49:24.270Z,8.00
2023-09-09T23:51:50.973Z,9.38
2023-09-09T23:54:17.467Z,10.88
2023-09-09T23:56:43.985Z,11.60
2023-09-09T23:59:10.622Z,11.30
